Hay River, Hay River Merlyn Carter Airport (CYHY)

NameHay River Merlyn Carter Airport
CityHay River
CountryCanada
ICAOCYHY
IATAYHY
Altitude165 m
CoordinatesGoogle Map
Live Air TrafficLiveATC.net
METARCYHY 181400Z 19003KT 3SM -RA FU BKN029 BKN070 OVC110 18/15 A2959 RMK FU5AC1AC2 INTMT -RA SLP025 DENSITY ALT 1400FT
2019-06-18 14:00:00 Wind: South (190°) 1.54 m/s - Visibility: 4828.02 m - Weather: Light Rain / Smoke - Temperature: 18 °C - Dew point: 15 °C - Humidity: 82.7% - Pressure: 1002.03 hPa

Sorry, no flights used the airport in this database.